Time;durP1;ratioP1;P1;durP2;ratioP2;P2;SDS_P1;SDS_P2;PMS_P1;PMS_P2;Temp;Humidity;BMP_temperature;BMP_pressure;BME280_temperature;BME280_humidity;BME280_pressure;Samples;Min_cycle;Max_cycle;Signal;HPM_P1;HPM_P2
2022/06/06 00:01:41;;;;;;;0.77;0.60;;;17.60;77.60;;;;;;5027718;28;20026;-75
2022/06/06 00:04:07;;;;;;;1.30;0.52;;;17.60;77.60;;;;;;5017704;28;20029;-75
2022/06/06 00:06:33;;;;;;;1.88;0.50;;;17.60;77.80;;;;;;5033389;28;20037;-75
2022/06/06 00:08:59;;;;;;;0.65;0.60;;;17.60;77.80;;;;;;5055027;28;20052;-75
2022/06/06 00:11:24;;;;;;;0.68;0.60;;;17.50;77.70;;;;;;5012885;28;20033;-75
2022/06/06 00:13:50;;;;;;;0.90;0.70;;;17.50;77.80;;;;;;5005619;28;20056;-75
2022/06/06 00:16:15;;;;;;;1.05;0.70;;;17.50;77.90;;;;;;5020118;28;20704;-76
2022/06/06 00:18:41;;;;;;;4.70;1.10;;;17.50;78.00;;;;;;5021056;28;20146;-75
2022/06/06 00:21:08;;;;;;;2.05;0.60;;;17.50;78.10;;;;;;5021922;28;20436;-75
2022/06/06 00:23:34;;;;;;;0.82;0.60;;;17.50;78.30;;;;;;5035428;28;20122;-76
2022/06/06 00:26:00;;;;;;;2.50;0.77;;;17.50;78.30;;;;;;5024274;28;20029;-76
2022/06/06 00:28:26;;;;;;;2.00;0.82;;;17.50;78.30;;;;;;5044782;28;20037;-77
2022/06/06 00:34:48;;;;;;;2.33;0.60;;;17.50;78.40;;;;;;5037224;28;20044;-75
2022/06/06 00:36:31;;;;;;;5.85;0.88;;;17.50;78.40;;;;;;5019506;28;20060;-75
2022/06/06 00:38:57;;;;;;;1.60;0.55;;;17.50;78.60;;;;;;4991560;28;20052;-75
2022/06/06 00:41:22;;;;;;;2.05;0.60;;;17.50;78.60;;;;;;5002431;28;20032;-75
2022/06/06 00:44:13;;;;;;;1.10;0.63;;;17.50;78.60;;;;;;4991737;28;20061;-77
2022/06/06 00:46:48;;;;;;;3.10;0.60;;;17.50;78.80;;;;;;5025930;28;20497;-76
2022/06/06 00:49:22;;;;;;;0.68;0.63;;;17.50;78.50;;;;;;4997334;28;20135;-75
2022/06/06 00:51:48;;;;;;;0.50;0.50;;;17.50;78.40;;;;;;5008144;28;20450;-75
2022/06/06 00:54:14;;;;;;;2.03;0.77;;;17.50;78.30;;;;;;5015441;28;20062;-75
2022/06/06 00:56:42;;;;;;;1.35;0.60;;;17.50;78.30;;;;;;4998609;28;20075;-76
2022/06/06 00:59:12;;;;;;;0.90;0.65;;;17.50;78.30;;;;;;5026151;28;20032;-75
2022/06/06 01:01:38;;;;;;;0.82;0.80;;;17.50;78.10;;;;;;5026927;28;20143;-74
2022/06/06 01:04:04;;;;;;;1.27;0.70;;;17.50;78.00;;;;;;5022846;28;20549;-75
2022/06/06 01:06:31;;;;;;;0.60;0.60;;;17.60;78.20;;;;;;5020380;28;20042;-75
2022/06/06 01:08:58;;;;;;;0.70;0.55;;;17.60;78.20;;;;;;5000226;28;20039;-76
2022/06/06 01:11:24;;;;;;;2.55;0.80;;;17.50;78.10;;;;;;5028400;28;20041;-76
2022/06/06 01:13:50;;;;;;;2.17;0.50;;;17.50;78.00;;;;;;5010683;28;20179;-75
2022/06/06 01:16:37;;;;;;;2.22;0.60;;;17.60;78.00;;;;;;5014267;28;20434;-75
2022/06/06 01:19:14;;;;;;;0.93;0.57;;;17.60;78.00;;;;;;5026937;28;20036;-75
2022/06/06 01:22:17;;;;;;;0.60;0.60;;;17.60;78.00;;;;;;5019786;28;20429;-75
2022/06/06 01:25:03;;;;;;;0.88;0.75;;;17.60;78.10;;;;;;5030663;28;20053;-77
2022/06/06 01:27:46;;;;;;;2.03;0.90;;;17.50;77.80;;;;;;5034838;28;20122;-76
2022/06/06 01:30:14;;;;;;;2.55;1.00;;;17.60;77.90;;;;;;4997891;28;20041;-75
2022/06/06 01:32:45;;;;;;;0.70;0.70;;;17.50;77.70;;;;;;4997485;28;20133;-75
2022/06/06 01:35:11;;;;;;;1.80;0.63;;;17.50;77.80;;;;;;5036188;28;20517;-75
2022/06/06 01:37:40;;;;;;;2.15;1.02;;;17.60;77.80;;;;;;5016610;28;20045;-76
2022/06/06 01:40:10;;;;;;;1.45;0.90;;;17.60;77.90;;;;;;5017181;28;20082;-77
2022/06/06 01:42:53;;;;;;;1.13;0.70;;;17.50;77.90;;;;;;5012836;28;20409;-75
2022/06/06 01:45:28;;;;;;;2.78;0.60;;;17.50;77.90;;;;;;5018499;28;20045;-75
2022/06/06 01:48:03;;;;;;;2.15;0.82;;;17.60;77.90;;;;;;5024964;28;20696;-75
2022/06/06 01:50:29;;;;;;;1.85;0.88;;;17.50;77.80;;;;;;5004069;28;20517;-75
2022/06/06 01:52:56;;;;;;;2.50;1.10;;;17.50;77.70;;;;;;5000642;28;20033;-76
2022/06/06 01:55:22;;;;;;;2.80;0.95;;;17.50;77.70;;;;;;5020271;28;20025;-75
2022/06/06 01:57:49;;;;;;;1.27;1.10;;;17.50;77.80;;;;;;4981101;28;20037;-75
2022/06/06 02:00:15;;;;;;;1.98;0.80;;;17.50;77.80;;;;;;5005408;28;20170;-75
2022/06/06 02:02:43;;;;;;;1.17;0.90;;;17.50;77.80;;;;;;5019610;28;20475;-76
2022/06/06 02:05:11;;;;;;;2.22;1.00;;;17.50;77.90;;;;;;5006214;28;20727;-75
2022/06/06 02:07:37;;;;;;;1.85;1.00;;;17.50;77.90;;;;;;5020702;28;20065;-76
2022/06/06 02:10:03;;;;;;;2.42;1.15;;;17.50;77.90;;;;;;5022412;28;20040;-76
2022/06/06 02:12:28;;;;;;;1.42;1.30;;;17.50;78.10;;;;;;5046255;28;20500;-75
2022/06/06 02:14:54;;;;;;;2.53;1.15;;;17.40;78.10;;;;;;5014020;28;20037;-75
2022/06/06 02:17:19;;;;;;;1.92;1.20;;;17.40;78.20;;;;;;5049117;28;20476;-76
2022/06/06 02:19:45;;;;;;;1.90;1.10;;;17.40;78.30;;;;;;5023674;28;20025;-77
2022/06/06 02:22:11;;;;;;;2.05;1.20;;;17.40;78.40;;;;;;5029088;28;20033;-75
2022/06/06 02:24:36;;;;;;;2.28;1.40;;;17.40;78.50;;;;;;5017447;28;20038;-75
2022/06/06 02:27:02;;;;;;;1.38;0.95;;;17.40;78.60;;;;;;5015910;28;20095;-75
2022/06/06 02:29:28;;;;;;;2.55;1.33;;;17.40;78.50;;;;;;5040240;28;20082;-76
2022/06/06 02:31:53;;;;;;;1.63;0.85;;;17.40;78.40;;;;;;5004528;28;20029;-75
2022/06/06 02:34:19;;;;;;;3.05;1.52;;;17.40;78.40;;;;;;5020755;28;20029;-75
2022/06/06 02:36:44;;;;;;;3.30;1.30;;;17.40;78.40;;;;;;5027191;28;20171;-77
2022/06/06 02:39:10;;;;;;;2.50;1.20;;;17.40;78.30;;;;;;5022395;28;20034;-76
2022/06/06 02:41:35;;;;;;;3.42;1.30;;;17.40;78.20;;;;;;5014416;28;20041;-77
2022/06/06 02:44:01;;;;;;;1.30;1.20;;;17.30;78.10;;;;;;5031553;28;20043;-75
2022/06/06 02:46:26;;;;;;;3.38;1.55;;;17.30;78.20;;;;;;5005857;28;20025;-75
2022/06/06 02:48:52;;;;;;;4.78;1.50;;;17.30;78.10;;;;;;5009019;28;20056;-75
2022/06/06 02:51:17;;;;;;;1.48;1.27;;;17.30;78.10;;;;;;5027688;28;20037;-75
2022/06/06 02:53:43;;;;;;;2.63;1.30;;;17.30;78.20;;;;;;5016329;28;20056;-75
2022/06/06 02:56:08;;;;;;;1.95;1.20;;;17.20;78.20;;;;;;5003598;28;20034;-74
2022/06/06 02:58:34;;;;;;;4.55;1.42;;;17.20;78.30;;;;;;4987581;28;20056;-74
2022/06/06 03:01:05;;;;;;;4.90;1.30;;;17.20;78.30;;;;;;5020701;28;20054;-74
2022/06/06 03:03:31;;;;;;;;;;;17.10;78.30;;;;;;5020584;28;20030;-75
2022/06/06 03:06:05;;;;;;;4.22;1.48;;;17.10;78.30;;;;;;5022708;28;19912;-75
2022/06/06 03:08:39;;;;;;;2.72;1.50;;;17.10;78.40;;;;;;5013506;28;20117;-75
2022/06/06 03:11:17;;;;;;;4.57;1.65;;;17.00;78.40;;;;;;5010308;28;20045;-75
2022/06/06 03:13:56;;;;;;;2.33;1.63;;;17.00;78.60;;;;;;5029970;28;20132;-75
2022/06/06 03:22:55;;;;;;;2.97;2.00;;;16.90;78.70;;;;;;5014532;28;20227;-74
2022/06/06 03:25:42;;;;;;;4.45;1.63;;;16.90;78.80;;;;;;5026977;28;20029;-78
2022/06/06 03:28:19;;;;;;;2.25;1.55;;;16.80;78.80;;;;;;5027407;28;20032;-75
2022/06/06 03:31:15;;;;;;;1.55;1.45;;;16.80;78.80;;;;;;5008667;28;20049;-75
2022/06/06 03:33:42;;;;;;;1.80;1.48;;;16.80;78.90;;;;;;5013960;28;20049;-77
2022/06/06 03:36:17;;;;;;;6.05;1.40;;;16.80;78.80;;;;;;4996747;28;20037;-75
2022/06/06 03:39:21;;;;;;;2.28;1.48;;;16.80;78.80;;;;;;5012058;28;20066;-75
2022/06/06 03:42:15;;;;;;;3.03;1.38;;;16.70;79.00;;;;;;4988206;28;20038;-75
2022/06/06 03:44:49;;;;;;;3.03;1.80;;;16.70;79.00;;;;;;5022647;28;20041;-75
2022/06/06 03:47:43;;;;;;;1.42;1.33;;;16.70;78.90;;;;;;5022035;28;20029;-75
2022/06/06 03:50:23;;;;;;;1.83;1.70;;;16.60;78.90;;;;;;4995628;28;20473;-75
2022/06/06 03:52:49;;;;;;;1.58;1.30;;;16.60;78.80;;;;;;5021212;28;20033;-75
2022/06/06 03:55:45;;;;;;;2.92;1.77;;;16.60;78.80;;;;;;5034012;28;21020;-75
2022/06/06 03:58:12;;;;;;;3.15;1.50;;;16.50;79.00;;;;;;5013461;28;20052;-75
2022/06/06 04:00:37;;;;;;;1.40;1.30;;;16.50;78.80;;;;;;5021673;28;20747;-76
2022/06/06 04:03:04;;;;;;;2.38;1.20;;;16.50;78.80;;;;;;5023971;28;20133;-74
2022/06/06 04:05:30;;;;;;;3.17;1.38;;;16.50;78.90;;;;;;5018022;28;20035;-74
2022/06/06 04:07:55;;;;;;;2.58;1.35;;;16.50;78.90;;;;;;5000573;28;20042;-75
2022/06/06 04:10:21;;;;;;;1.95;1.58;;;16.40;78.80;;;;;;5022453;28;20203;-75
2022/06/06 04:13:00;;;;;;;2.20;1.60;;;16.40;79.00;;;;;;5015197;28;20041;-74
2022/06/06 04:15:46;;;;;;;5.35;1.52;;;16.40;79.10;;;;;;5022291;28;20187;-74
2022/06/06 04:18:41;;;;;;;3.30;1.40;;;16.40;79.00;;;;;;5023969;28;20106;-74
2022/06/06 04:21:18;;;;;;;1.70;1.60;;;16.40;79.10;;;;;;5011895;28;20752;-74
2022/06/06 04:24:06;;;;;;;1.58;1.48;;;16.40;79.10;;;;;;5028571;28;20041;-75
2022/06/06 04:26:55;;;;;;;3.28;1.60;;;16.40;79.20;;;;;;5055288;28;20035;-75
2022/06/06 04:29:41;;;;;;;3.05;1.40;;;16.40;79.50;;;;;;5037101;28;20597;-75
2022/06/06 04:32:21;;;;;;;2.67;1.60;;;16.30;79.50;;;;;;5014637;28;20023;-75
2022/06/06 04:35:01;;;;;;;4.05;1.70;;;16.30;79.40;;;;;;5007220;28;20048;-75
2022/06/06 04:37:35;;;;;;;2.08;1.60;;;16.30;79.70;;;;;;5012676;28;20038;-75
2022/06/06 04:40:25;;;;;;;2.67;1.80;;;16.30;79.40;;;;;;5015006;28;20049;-77
2022/06/06 04:43:02;;;;;;;2.90;1.55;;;16.40;79.50;;;;;;5029548;28;20513;-74
2022/06/06 04:45:39;;;;;;;2.70;1.70;;;16.40;79.50;;;;;;5022576;28;20521;-75
2022/06/06 04:48:05;;;;;;;2.55;1.95;;;16.40;79.50;;;;;;4998903;28;20028;-75
2022/06/06 04:50:31;;;;;;;3.33;1.77;;;16.40;79.60;;;;;;4994355;28;20040;-75
2022/06/06 04:52:59;;;;;;;2.40;2.17;;;16.40;79.80;;;;;;4998870;28;20034;-74
2022/06/06 04:55:25;;;;;;;4.22;2.25;;;16.40;79.70;;;;;;5025060;28;20037;-75
2022/06/06 04:57:52;;;;;;;2.97;2.25;;;16.50;79.90;;;;;;5011256;28;20102;-75
2022/06/06 05:00:18;;;;;;;2.70;2.15;;;16.50;80.00;;;;;;5023627;28;20091;-75
2022/06/06 05:02:44;;;;;;;2.65;2.28;;;16.50;80.10;;;;;;5032672;28;20032;-74
2022/06/06 05:05:10;;;;;;;8.70;2.55;;;16.50;80.20;;;;;;5043486;28;20029;-74
2022/06/06 05:07:50;;;;;;;2.72;2.30;;;16.60;80.40;;;;;;5043996;28;20029;-75
2022/06/06 05:10:37;;;;;;;3.65;2.20;;;16.60;80.80;;;;;;5062499;28;20049;-75
2022/06/06 05:13:33;;;;;;;3.13;2.60;;;16.60;80.80;;;;;;5023060;28;20047;-74
2022/06/06 05:16:17;;;;;;;3.50;1.98;;;16.70;81.20;;;;;;5030177;28;20037;-74
2022/06/06 05:19:06;;;;;;;4.90;2.53;;;16.70;81.40;;;;;;5019393;28;20045;-76
2022/06/06 05:22:01;;;;;;;3.88;2.50;;;16.70;80.90;;;;;;5036327;28;20053;-75
2022/06/06 05:24:50;;;;;;;5.38;2.53;;;16.80;81.80;;;;;;5019922;28;20037;-74
2022/06/06 05:27:48;;;;;;;6.70;2.50;;;16.90;81.50;;;;;;5018139;28;20033;-74
2022/06/06 05:30:29;;;;;;;4.70;2.45;;;16.90;81.90;;;;;;5030252;28;20041;-76
2022/06/06 05:33:07;;;;;;;10.05;3.42;;;16.90;81.50;;;;;;5001157;28;20628;-74
2022/06/06 05:35:43;;;;;;;4.22;2.55;;;17.00;81.40;;;;;;5011012;28;20573;-75
2022/06/06 05:38:11;;;;;;;6.30;2.75;;;17.00;81.40;;;;;;5030502;28;20094;-76
2022/06/06 05:40:38;;;;;;;5.28;3.00;;;17.00;81.60;;;;;;5040529;28;20028;-75
2022/06/06 05:43:09;;;;;;;2.58;2.38;;;17.10;81.50;;;;;;4997550;28;20056;-75
2022/06/06 05:45:35;;;;;;;;;;;17.10;81.60;;;;;;5022717;28;20098;-75
2022/06/06 05:48:18;;;;;;;2.45;2.25;;;17.10;81.50;;;;;;5031592;28;20550;-75
2022/06/06 05:51:15;;;;;;;3.47;2.50;;;17.20;81.70;;;;;;4985264;28;20053;-72
2022/06/06 05:54:17;;;;;;;2.78;2.50;;;17.20;81.80;;;;;;5050341;28;20184;-72
2022/06/06 05:56:58;;;;;;;2.60;2.40;;;17.30;81.80;;;;;;5016875;28;20025;-75
2022/06/06 05:59:47;;;;;;;5.32;2.67;;;17.40;81.80;;;;;;5035008;28;20032;-78
2022/06/06 06:02:22;;;;;;;3.65;2.85;;;17.50;81.60;;;;;;5047508;28;20048;-75
2022/06/06 06:05:34;;;;;;;3.25;2.80;;;17.60;81.60;;;;;;5018439;28;20026;-78
2022/06/06 06:08:15;;;;;;;3.70;2.92;;;17.70;81.80;;;;;;4960265;28;20117;-76
2022/06/06 06:10:57;;;;;;;7.45;2.90;;;17.80;81.50;;;;;;5034950;28;20032;-75
2022/06/06 06:13:42;;;;;;;2.90;2.60;;;17.90;81.60;;;;;;4988594;28;20037;-75
2022/06/06 06:16:08;;;;;;;6.03;2.83;;;18.00;81.40;;;;;;5020286;28;20060;-75
2022/06/06 06:18:55;;;;;;;4.60;2.55;;;18.10;81.00;;;;;;5006134;28;20576;-77
2022/06/06 06:21:23;;;;;;;4.45;2.83;;;18.10;80.80;;;;;;5018783;28;20159;-77
2022/06/06 06:24:09;;;;;;;3.72;2.97;;;18.20;80.60;;;;;;5020579;28;20128;-77
2022/06/06 06:26:35;;;;;;;4.85;2.90;;;18.30;80.80;;;;;;5026112;28;20029;-76
2022/06/06 06:29:05;;;;;;;7.97;3.25;;;18.40;80.50;;;;;;5031433;28;20033;-77
2022/06/06 06:31:46;;;;;;;4.18;2.97;;;18.50;80.60;;;;;;4980466;28;20041;-76
2022/06/06 06:34:28;;;;;;;4.78;3.17;;;18.70;80.90;;;;;;5021258;28;20033;-77
2022/06/06 06:37:14;;;;;;;4.97;3.20;;;18.80;80.30;;;;;;5049022;28;20025;-78
2022/06/06 06:40:00;;;;;;;4.97;3.13;;;19.00;80.10;;;;;;5050713;28;20025;-78
2022/06/06 06:42:51;;;;;;;4.72;3.65;;;19.10;79.70;;;;;;5030029;28;20036;-76
2022/06/06 06:45:21;;;;;;;7.35;3.75;;;19.10;79.30;;;;;;5017377;28;20405;-76
2022/06/06 06:47:51;;;;;;;4.55;3.45;;;19.20;79.00;;;;;;5032544;28;20024;-77
2022/06/06 06:50:16;;;;;;;3.42;3.10;;;19.20;78.80;;;;;;5013653;28;20040;-77
2022/06/06 06:53:00;;;;;;;5.40;3.22;;;19.40;78.70;;;;;;5038726;28;20037;-77
2022/06/06 06:55:44;;;;;;;5.53;3.70;;;19.50;78.50;;;;;;5024644;28;20049;-76
2022/06/06 06:58:19;;;;;;;4.60;3.22;;;19.60;78.30;;;;;;4981291;28;20045;-77
2022/06/06 07:01:20;;;;;;;5.72;3.70;;;19.70;77.90;;;;;;5013744;28;20089;-76
2022/06/06 07:10:17;;;;;;;3.92;3.10;;;20.10;76.50;;;;;;5038703;28;20035;-76
2022/06/06 07:13:05;;;;;;;4.75;3.00;;;20.30;76.40;;;;;;5017419;28;20029;-76
2022/06/06 07:15:52;;;;;;;3.50;3.20;;;20.40;75.90;;;;;;5027016;28;20037;-76
2022/06/06 07:18:19;;;;;;;3.90;2.90;;;20.50;75.60;;;;;;5006053;28;20049;-76
2022/06/06 07:20:46;;;;;;;4.43;3.20;;;20.50;75.40;;;;;;5021869;28;20029;-76
2022/06/06 07:23:12;;;;;;;6.45;3.65;;;20.60;75.20;;;;;;5020900;28;20029;-76
2022/06/06 07:25:38;;;;;;;3.58;2.90;;;20.60;74.90;;;;;;5018122;28;20579;-76
2022/06/06 07:28:09;;;;;;;3.17;2.88;;;20.60;74.60;;;;;;5022402;28;20067;-77
2022/06/06 07:31:00;;;;;;;4.70;3.35;;;20.70;74.30;;;;;;5040688;28;20037;-76
2022/06/06 07:33:35;;;;;;;3.35;3.03;;;20.70;74.10;;;;;;5000641;28;20090;-76
2022/06/06 07:36:38;;;;;;;3.83;3.40;;;20.80;73.90;;;;;;5037224;28;20031;-75
2022/06/06 07:39:37;;;;;;;5.00;3.42;;;20.90;73.50;;;;;;5019946;28;20127;-77
2022/06/06 07:42:37;;;;;;;6.13;3.22;;;21.00;73.30;;;;;;5041220;28;20147;-75
2022/06/06 07:45:24;;;;;;;5.18;3.10;;;21.10;73.10;;;;;;5025352;28;20115;-76
2022/06/06 07:47:52;;;;;;;3.95;3.55;;;21.20;73.00;;;;;;5038395;28;20044;-77
2022/06/06 07:50:26;;;;;;;5.13;3.22;;;21.30;72.70;;;;;;5037137;28;20112;-77
2022/06/06 07:53:21;;;;;;;5.93;3.40;;;21.40;72.20;;;;;;5013660;28;20053;-77
2022/06/06 07:56:02;;;;;;;6.68;3.28;;;21.40;71.60;;;;;;5028196;28;20108;-77
2022/06/06 07:58:42;;;;;;;4.45;3.35;;;21.50;71.50;;;;;;5020582;28;20125;-76
2022/06/06 08:01:16;;;;;;;4.25;3.30;;;21.60;71.60;;;;;;5031850;28;20485;-76
2022/06/06 08:03:45;;;;;;;4.75;3.33;;;21.50;71.20;;;;;;5054115;28;20037;-77
2022/06/06 08:06:23;;;;;;;6.65;3.28;;;21.50;71.10;;;;;;5017480;28;20021;-75
2022/06/06 08:09:01;;;;;;;4.90;3.30;;;21.50;70.90;;;;;;4992430;28;20029;-77
2022/06/06 08:11:52;;;;;;;3.85;3.33;;;21.60;70.80;;;;;;5036824;28;20045;-76
2022/06/06 08:14:52;;;;;;;7.15;3.72;;;21.60;70.60;;;;;;5029251;28;20071;-77
2022/06/06 08:17:22;;;;;;;3.90;3.13;;;21.60;70.20;;;;;;5007048;28;20052;-76
2022/06/06 08:19:50;;;;;;;6.22;3.15;;;21.60;70.50;;;;;;5024255;28;20779;-76
2022/06/06 08:22:16;;;;;;;6.35;3.35;;;21.70;70.30;;;;;;5024118;28;20115;-76
2022/06/06 08:24:45;;;;;;;4.80;3.33;;;21.80;70.20;;;;;;5022652;28;20112;-76
2022/06/06 08:27:15;;;;;;;4.43;3.00;;;21.90;69.90;;;;;;5041017;28;20692;-77
2022/06/06 08:29:43;;;;;;;3.83;2.95;;;22.00;69.60;;;;;;5004228;28;20044;-76
2022/06/06 08:32:09;;;;;;;4.38;2.95;;;22.10;70.20;;;;;;5020486;28;20529;-76
2022/06/06 08:34:34;;;;;;;4.80;3.47;;;22.20;69.10;;;;;;5034165;28;20033;-77
2022/06/06 08:37:16;;;;;;;4.85;3.00;;;22.40;69.60;;;;;;5019731;28;20114;-76
2022/06/06 08:40:06;;;;;;;3.10;2.80;;;22.50;68.40;;;;;;5051276;28;20131;-77
2022/06/06 08:42:47;;;;;;;3.63;3.00;;;22.60;67.60;;;;;;5029348;28;20028;-76
2022/06/06 08:45:46;;;;;;;5.45;3.03;;;22.70;67.60;;;;;;5029745;28;20049;-76
2022/06/06 08:48:49;;;;;;;3.72;2.63;;;22.80;66.90;;;;;;5032553;28;20125;-76
2022/06/06 08:51:38;;;;;;;4.38;3.13;;;22.90;66.50;;;;;;5015861;28;20053;-77
2022/06/06 08:54:19;;;;;;;2.67;2.45;;;23.00;67.40;;;;;;5030257;28;20283;-76
2022/06/06 08:57:17;;;;;;;5.32;2.72;;;23.10;66.50;;;;;;5041399;28;20096;-77
2022/06/06 08:59:45;;;;;;;5.60;2.80;;;23.30;66.00;;;;;;5006445;28;20067;-76
2022/06/06 09:02:23;;;;;;;5.72;2.78;;;23.30;66.10;;;;;;5025570;28;20037;-77
2022/06/06 09:05:26;;;;;;;5.15;2.20;;;23.50;65.50;;;;;;5020179;28;20038;-76
2022/06/06 09:08:26;;;;;;;3.85;2.20;;;23.60;64.70;;;;;;5027484;28;20040;-77
2022/06/06 09:11:03;;;;;;;2.60;2.40;;;23.70;64.40;;;;;;4980168;28;20538;-77
2022/06/06 09:13:40;;;;;;;2.42;2.05;;;23.70;64.40;;;;;;5028351;28;20106;-76
2022/06/06 09:16:33;;;;;;;5.03;2.40;;;23.80;64.00;;;;;;5029591;28;20044;-77
2022/06/06 09:19:31;;;;;;;4.30;2.67;;;24.00;63.60;;;;;;4998119;28;20060;-77
2022/06/06 09:22:25;;;;;;;3.45;2.00;;;24.20;63.10;;;;;;5027285;28;20029;-76
2022/06/06 09:25:31;;;;;;;2.28;2.05;;;24.40;62.60;;;;;;5018049;28;20044;-76
2022/06/06 09:28:26;;;;;;;2.53;1.98;;;24.60;62.00;;;;;;4990799;28;20033;-77
2022/06/06 09:31:16;;;;;;;7.30;2.20;;;24.90;61.50;;;;;;5011356;28;20052;-76
2022/06/06 09:33:47;;;;;;;4.13;1.85;;;25.10;61.10;;;;;;5045444;28;20683;-75
2022/06/06 09:36:19;;;;;;;2.60;2.28;;;25.30;61.00;;;;;;5036936;28;20036;-76
2022/06/06 09:39:07;;;;;;;3.65;1.50;;;25.30;60.00;;;;;;5016967;28;20040;-77
2022/06/06 09:42:06;;;;;;;2.13;1.67;;;25.40;58.90;;;;;;5023604;28;20040;-76
2022/06/06 09:44:59;;;;;;;3.38;1.60;;;25.60;58.50;;;;;;5041127;28;20033;-75
2022/06/06 09:47:54;;;;;;;3.33;1.55;;;25.90;58.00;;;;;;5028251;28;20083;-76
2022/06/06 09:50:47;;;;;;;1.90;1.23;;;26.20;57.50;;;;;;5052056;28;20179;-76
2022/06/06 09:53:16;;;;;;;2.72;1.30;;;26.40;56.90;;;;;;5036682;28;20072;-76
2022/06/06 09:59:08;;;;;;;3.28;1.40;;;26.50;55.70;;;;;;5037142;28;20046;-75
2022/06/06 10:01:51;;;;;;;1.42;1.33;;;26.60;55.50;;;;;;5010476;28;20045;-76
2022/06/06 10:04:28;;;;;;;1.35;1.25;;;26.60;54.80;;;;;;5031016;28;20043;-75
2022/06/06 10:07:21;;;;;;;2.05;1.25;;;26.80;55.30;;;;;;5035448;28;20029;-76
2022/06/06 10:10:04;;;;;;;1.80;1.35;;;26.90;54.20;;;;;;5013823;28;20065;-76
2022/06/06 10:12:46;;;;;;;2.08;1.20;;;27.10;54.30;;;;;;5009991;28;20025;-77
2022/06/06 10:15:41;;;;;;;2.58;1.05;;;27.10;54.60;;;;;;5018705;28;20029;-77
2022/06/06 10:18:28;;;;;;;1.63;1.50;;;27.20;53.20;;;;;;5020973;28;20128;-76
2022/06/06 10:21:26;;;;;;;1.60;1.30;;;27.40;53.00;;;;;;5000438;28;20083;-78
2022/06/06 10:23:55;;;;;;;1.17;1.02;;;27.50;52.10;;;;;;5057907;28;20086;-77
2022/06/06 10:26:59;;;;;;;1.58;1.20;;;27.60;53.10;;;;;;5042617;28;20503;-77
2022/06/06 10:29:25;;;;;;;1.90;1.13;;;27.60;51.30;;;;;;5034833;28;20067;-77
2022/06/06 10:32:35;;;;;;;2.67;1.02;;;27.60;52.40;;;;;;5046391;28;20660;-77
2022/06/06 10:35:14;;;;;;;3.65;1.00;;;27.50;50.60;;;;;;5036744;28;20053;-76
2022/06/06 10:37:58;;;;;;;1.55;1.27;;;27.30;51.80;;;;;;5038723;28;20083;-77
2022/06/06 10:40:51;;;;;;;4.13;1.00;;;27.20;50.70;;;;;;5040863;28;20029;-77
2022/06/06 10:43:32;;;;;;;2.67;0.85;;;27.20;50.80;;;;;;4995809;28;20192;-77
2022/06/06 10:46:03;;;;;;;3.22;1.00;;;27.10;51.30;;;;;;5043452;28;20055;-77
2022/06/06 10:48:47;;;;;;;2.38;1.08;;;27.10;51.80;;;;;;5013220;28;20102;-76
2022/06/06 10:51:40;;;;;;;4.82;1.42;;;27.10;51.80;;;;;;5008885;28;20507;-76
2022/06/06 10:54:32;;;;;;;2.58;1.00;;;27.10;51.20;;;;;;5006391;28;20501;-76
2022/06/06 10:57:12;;;;;;;9.07;0.98;;;27.10;51.60;;;;;;5011549;28;20037;-78
2022/06/06 11:00:06;;;;;;;2.17;1.00;;;27.00;51.80;;;;;;5014557;28;20045;-76
2022/06/06 11:02:55;;;;;;;1.02;0.98;;;26.80;50.90;;;;;;5041450;28;20033;-78
2022/06/06 11:05:29;;;;;;;1.98;1.05;;;26.70;50.90;;;;;;5029287;28;20037;-77
2022/06/06 11:08:14;;;;;;;2.10;1.27;;;26.50;51.60;;;;;;5045824;28;20048;-76
2022/06/06 11:11:04;;;;;;;1.38;0.77;;;26.50;51.40;;;;;;5031718;28;20032;-77
2022/06/06 11:13:38;;;;;;;3.45;1.00;;;26.50;51.30;;;;;;4998107;28;20755;-77
2022/06/06 11:16:23;;;;;;;2.25;0.98;;;26.40;51.70;;;;;;5043450;28;20041;-77
2022/06/06 11:19:05;;;;;;;1.50;1.40;;;26.50;51.70;;;;;;5025078;28;20049;-76
2022/06/06 11:21:45;;;;;;;1.17;1.02;;;26.50;51.40;;;;;;5014538;28;20527;-77
2022/06/06 11:24:39;;;;;;;2.95;1.25;;;26.50;51.40;;;;;;5020980;28;20044;-77
2022/06/06 11:27:18;;;;;;;1.13;0.90;;;26.40;51.60;;;;;;5039978;28;20029;-78
2022/06/06 11:29:59;;;;;;;1.73;0.90;;;26.30;51.90;;;;;;5035356;28;20115;-76
2022/06/06 11:32:46;;;;;;;1.55;1.02;;;26.30;51.80;;;;;;5030705;28;20044;-76
2022/06/06 11:35:27;;;;;;;1.30;1.20;;;26.30;52.00;;;;;;5026617;28;20037;-77
2022/06/06 11:38:06;;;;;;;3.90;1.10;;;26.60;52.30;;;;;;5038315;28;20028;-77
2022/06/06 11:40:45;;;;;;;2.55;1.45;;;26.70;52.30;;;;;;5035490;28;20045;-76
2022/06/06 11:43:20;;;;;;;1.35;1.20;;;26.90;51.70;;;;;;5027140;28;20531;-76
2022/06/06 11:46:23;;;;;;;1.55;0.85;;;27.10;51.80;;;;;;5026350;28;20041;-77
2022/06/06 11:49:09;;;;;;;1.27;1.00;;;27.30;50.90;;;;;;5036499;28;20043;-77
2022/06/06 11:51:55;;;;;;;1.35;1.25;;;27.60;51.20;;;;;;5006047;28;20045;-77
2022/06/06 11:54:23;;;;;;;4.68;1.25;;;27.90;50.40;;;;;;5015729;28;20045;-77
2022/06/06 11:57:19;;;;;;;1.10;1.00;;;28.10;50.70;;;;;;5032745;28;20041;-77
2022/06/06 12:00:04;;;;;;;1.42;1.10;;;28.20;49.90;;;;;;5027197;28;20083;-78
2022/06/06 12:02:42;;;;;;;1.52;0.90;;;28.30;49.60;;;;;;5020804;28;20122;-77
2022/06/06 12:05:26;;;;;;;1.40;1.30;;;28.40;50.00;;;;;;5025192;28;20112;-77
2022/06/06 12:07:58;;;;;;;1.80;1.10;;;28.30;49.10;;;;;;5024150;28;20037;-76
2022/06/06 12:10:25;;;;;;;2.08;0.98;;;28.20;49.90;;;;;;5034383;28;20488;-77
2022/06/06 12:13:12;;;;;;;2.30;1.73;;;28.10;49.90;;;;;;5012893;28;20057;-74
2022/06/06 12:16:09;;;;;;;2.58;1.13;;;28.00;49.30;;;;;;5028531;28;20039;-73
2022/06/06 12:18:35;;;;;;;1.65;1.20;;;27.90;49.30;;;;;;5046000;28;20049;-77
2022/06/06 12:21:21;;;;;;;1.42;1.33;;;27.90;50.00;;;;;;5022946;28;20040;-77
2022/06/06 12:24:13;;;;;;;1.58;1.10;;;27.80;49.20;;;;;;5019523;28;20160;-76
2022/06/06 12:26:59;;;;;;;;;;;27.70;49.10;;;;;;4969800;28;20512;-77
2022/06/06 12:29:31;;;;;;;1.20;1.10;;;27.70;50.00;;;;;;5038456;28;19913;-76
2022/06/06 12:32:16;;;;;;;2.65;1.10;;;27.60;50.10;;;;;;5019421;28;20029;-77
2022/06/06 12:34:51;;;;;;;1.63;1.17;;;27.50;49.80;;;;;;5000665;28;20034;-76
2022/06/06 12:37:22;;;;;;;1.48;0.95;;;27.40;49.80;;;;;;5005352;28;20033;-78
2022/06/06 12:39:59;;;;;;;;;;;27.40;49.70;;;;;;5015749;28;20422;-78
2022/06/06 12:42:38;;;;;;;2.30;1.00;;;27.40;49.90;;;;;;5046692;28;19917;-77
2022/06/06 12:45:29;;;;;;;1.10;1.00;;;27.20;49.50;;;;;;4993547;28;20064;-77
2022/06/06 12:48:19;;;;;;;1.67;0.97;;;27.20;49.50;;;;;;5034536;28;20085;-77
2022/06/06 12:51:00;;;;;;;1.52;0.85;;;27.10;49.70;;;;;;4979513;28;20303;-78
2022/06/06 12:53:35;;;;;;;1.50;1.30;;;27.00;49.80;;;;;;5020270;28;20079;-76
2022/06/06 12:56:23;;;;;;;2.10;0.93;;;26.90;49.80;;;;;;5013654;28;20534;-76
2022/06/06 12:59:17;;;;;;;1.42;1.08;;;26.80;49.90;;;;;;4997888;28;20044;-77
2022/06/06 13:02:13;;;;;;;1.38;1.00;;;26.70;49.90;;;;;;5027649;28;20091;-76
2022/06/06 13:04:47;;;;;;;2.35;1.17;;;26.50;50.10;;;;;;5049696;28;20505;-76
2022/06/06 13:07:30;;;;;;;1.65;1.20;;;26.40;50.40;;;;;;5021643;28;20069;-77
2022/06/06 13:10:13;;;;;;;1.30;1.17;;;26.30;50.70;;;;;;5020974;28;20069;-75
2022/06/06 13:12:47;;;;;;;1.00;1.00;;;26.20;51.00;;;;;;5009008;28;20030;-76
2022/06/06 13:15:37;;;;;;;2.38;1.40;;;26.10;51.20;;;;;;5022077;28;20044;-77
2022/06/06 13:18:25;;;;;;;1.38;1.27;;;26.00;51.50;;;;;;5013405;28;20045;-75
2022/06/06 13:21:33;;;;;;;4.68;1.35;;;25.80;51.80;;;;;;5103337;22;20229;-76
2022/06/06 13:24:21;;;;;;;2.45;1.25;;;25.60;52.10;;;;;;4987903;28;20038;-75
2022/06/06 13:26:52;;;;;;;2.47;1.10;;;25.60;52.60;;;;;;4965533;28;20031;-76
2022/06/06 13:29:31;;;;;;;2.75;1.10;;;25.50;52.80;;;;;;4947670;28;20045;-75
2022/06/06 13:32:20;;;;;;;1.80;1.17;;;25.30;53.20;;;;;;4940140;28;20828;-75
2022/06/06 13:34:59;;;;;;;1.85;1.33;;;25.20;53.60;;;;;;4941919;28;20067;-75
2022/06/06 13:37:48;;;;;;;2.58;1.33;;;25.10;53.80;;;;;;4966177;28;20130;-76
2022/06/06 13:40:30;;;;;;;2.22;1.10;;;25.00;54.20;;;;;;4960529;28;20509;-75
2022/06/06 13:43:01;;;;;;;1.48;1.20;;;24.90;54.20;;;;;;4971160;28;20569;-75
2022/06/06 13:45:48;;;;;;;1.83;1.23;;;24.80;54.40;;;;;;4934938;28;20045;-75
2022/06/06 13:48:23;;;;;;;1.25;1.15;;;24.70;54.90;;;;;;4961183;28;20050;-76
2022/06/06 13:50:48;;;;;;;1.70;1.30;;;24.70;54.90;;;;;;4940787;28;20543;-75
2022/06/06 13:53:42;;;;;;;1.90;1.45;;;24.60;55.10;;;;;;4955863;28;20069;-77
2022/06/06 13:56:18;;;;;;;4.35;1.48;;;24.50;55.30;;;;;;4939426;28;20046;-76
2022/06/06 13:58:55;;;;;;;2.10;1.42;;;24.50;55.40;;;;;;4969491;28;20584;-76
2022/06/06 14:01:34;;;;;;;2.75;1.10;;;24.40;55.60;;;;;;4954655;28;20058;-78
2022/06/06 14:04:25;;;;;;;2.72;1.23;;;24.30;55.70;;;;;;4961564;28;20089;-76
2022/06/06 14:06:56;;;;;;;1.42;1.33;;;24.30;56.00;;;;;;4920209;28;20031;-77